Time;durP1;ratioP1;P1;durP2;ratioP2;P2;SDS_P1;SDS_P2;PMS_P1;PMS_P2;Temp;Humidity;BMP_temperature;BMP_pressure;BME280_temperature;BME280_humidity;BME280_pressure;Samples;Min_cycle;Max_cycle;Signal;HPM_P1;HPM_P2
2022/04/09 00:00:13;;;;;;;10.37;2.10;;;6.60;99.90;;;;;;5035861;28;20086;-83
2022/04/09 00:02:39;;;;;;;10.63;2.33;;;6.60;99.90;;;;;;5070341;28;20135;-83
2022/04/09 00:05:06;;;;;;;10.40;2.33;;;6.60;99.90;;;;;;5070694;28;20024;-83
2022/04/09 00:07:31;;;;;;;10.30;1.93;;;6.60;99.90;;;;;;5070308;28;20048;-83
2022/04/09 00:09:57;;;;;;;11.57;2.83;;;6.60;99.90;;;;;;5070386;28;20158;-83
2022/04/09 00:12:23;;;;;;;17.90;3.97;;;6.50;99.90;;;;;;5052331;28;20028;-83
2022/04/09 00:14:48;;;;;;;17.50;4.60;;;6.40;99.90;;;;;;5070123;28;20032;-83
2022/04/09 00:17:14;;;;;;;13.70;4.00;;;6.50;99.90;;;;;;5069995;28;20038;-83
2022/04/09 00:19:40;;;;;;;17.43;4.50;;;6.50;99.90;;;;;;5070381;28;20047;-83
2022/04/09 00:22:06;;;;;;;16.03;4.33;;;6.50;99.90;;;;;;5054435;28;20055;-83
2022/04/09 00:24:32;;;;;;;12.77;3.73;;;6.40;99.90;;;;;;5074094;28;20458;-83
2022/04/09 00:26:58;;;;;;;16.30;4.00;;;6.50;99.90;;;;;;5073969;28;20035;-83
2022/04/09 00:29:24;;;;;;;16.10;4.23;;;6.50;99.90;;;;;;5073920;28;20074;-83
2022/04/09 00:31:50;;;;;;;19.17;4.80;;;6.50;99.90;;;;;;5073912;28;20067;-83
2022/04/09 00:34:15;;;;;;;14.87;3.37;;;6.50;99.90;;;;;;5074082;28;20029;-83
2022/04/09 00:36:41;;;;;;;12.20;2.90;;;6.50;99.90;;;;;;5055673;28;20032;-83
2022/04/09 00:39:07;;;;;;;16.10;2.60;;;6.40;99.90;;;;;;5073936;28;20024;-83
2022/04/09 00:41:33;;;;;;;14.37;2.73;;;6.40;99.90;;;;;;5055687;28;20473;-83
2022/04/09 00:43:59;;;;;;;13.83;3.33;;;6.40;99.90;;;;;;5055926;28;20034;-83
2022/04/09 00:46:25;;;;;;;11.73;2.50;;;6.30;99.90;;;;;;5055780;28;20035;-83
2022/04/09 00:48:51;;;;;;;9.67;2.57;;;6.30;99.90;;;;;;5055696;28;20029;-83
2022/04/09 00:51:16;;;;;;;14.07;3.13;;;6.30;99.90;;;;;;5073807;28;20028;-83
2022/04/09 00:53:46;;;;;;;8.97;2.50;;;6.30;99.90;;;;;;5073776;28;20044;-83
2022/04/09 00:56:13;;;;;;;10.13;2.50;;;6.30;99.90;;;;;;5073503;28;20503;-83
2022/04/09 00:58:55;;;;;;;11.57;2.40;;;6.30;99.90;;;;;;5073428;28;20063;-83
2022/04/09 01:01:27;;;;;;;12.40;2.47;;;6.30;99.90;;;;;;5056243;28;20369;-83
2022/04/09 01:03:54;;;;;;;9.17;2.60;;;6.30;99.90;;;;;;5073964;28;20029;-83
2022/04/09 01:06:20;;;;;;;12.37;2.57;;;6.20;99.90;;;;;;5073968;28;20028;-83
2022/04/09 01:08:46;;;;;;;13.90;2.53;;;6.20;99.90;;;;;;5055499;28;20028;-83
2022/04/09 01:11:13;;;;;;;12.90;2.93;;;6.20;99.90;;;;;;5038936;28;20037;-83
2022/04/09 01:13:40;;;;;;;9.17;3.17;;;6.20;99.90;;;;;;5073234;28;20028;-82
2022/04/09 01:16:06;;;;;;;13.57;2.83;;;6.30;99.90;;;;;;5073332;28;20032;-82
2022/04/09 01:18:33;;;;;;;12.40;3.00;;;6.20;99.90;;;;;;5054935;28;20025;-83
2022/04/09 01:21:04;;;;;;;9.13;2.53;;;6.20;99.90;;;;;;5055367;28;20029;-83
2022/04/09 01:23:31;;;;;;;11.40;2.63;;;6.20;99.90;;;;;;5054938;28;20032;-82
2022/04/09 01:26:01;;;;;;;12.63;3.38;;;6.20;99.90;;;;;;5039174;28;20036;-82
2022/04/09 01:28:28;;;;;;;14.15;3.17;;;6.20;99.90;;;;;;5054808;28;20032;-83
2022/04/09 01:30:55;;;;;;;10.40;3.13;;;6.20;99.90;;;;;;5055215;28;20036;-83
2022/04/09 01:33:22;;;;;;;10.07;2.93;;;6.10;99.90;;;;;;5054756;28;20055;-83
2022/04/09 01:35:49;;;;;;;16.13;3.10;;;6.10;99.90;;;;;;5054847;28;20441;-83
2022/04/09 01:38:16;;;;;;;9.97;2.50;;;6.10;99.90;;;;;;5054544;28;20048;-83
2022/04/09 01:40:42;;;;;;;12.77;2.70;;;6.10;99.90;;;;;;5054728;28;20034;-83
2022/04/09 01:43:08;;;;;;;12.60;2.70;;;6.10;99.90;;;;;;5054740;28;20033;-83
2022/04/09 01:45:36;;;;;;;15.37;3.53;;;6.10;99.90;;;;;;5054829;28;20062;-83
2022/04/09 01:48:06;;;;;;;18.17;2.90;;;6.10;99.90;;;;;;5054568;28;20119;-83
2022/04/09 01:50:32;;;;;;;14.90;3.20;;;6.10;99.90;;;;;;5054738;28;20067;-83
2022/04/09 01:52:59;;;;;;;13.43;3.10;;;6.10;99.90;;;;;;5054504;28;20028;-83
2022/04/09 01:55:25;;;;;;;13.30;2.80;;;6.10;99.90;;;;;;5054446;28;20072;-83
2022/04/09 01:57:52;;;;;;;17.77;2.97;;;6.00;99.90;;;;;;5054197;28;20032;-83
2022/04/09 02:00:22;;;;;;;15.83;3.47;;;6.10;99.90;;;;;;5054485;28;20029;-83
2022/04/09 02:02:51;;;;;;;11.95;3.40;;;6.10;99.90;;;;;;5037966;28;20142;-82
2022/04/09 02:05:18;;;;;;;13.63;5.03;;;6.00;99.90;;;;;;5054288;28;20405;-83
2022/04/09 02:07:47;;;;;;;16.02;2.92;;;6.00;99.90;;;;;;5072093;28;20055;-83
2022/04/09 02:10:14;;;;;;;12.27;3.10;;;6.10;99.90;;;;;;5054341;28;20036;-83
2022/04/09 02:12:42;;;;;;;12.20;3.43;;;6.00;99.90;;;;;;5054220;28;20062;-83
2022/04/09 02:15:11;;;;;;;14.43;3.00;;;6.00;99.90;;;;;;5037784;28;20029;-82
2022/04/09 02:17:39;;;;;;;14.70;2.70;;;6.00;99.90;;;;;;5067876;22;20229;-88
2022/04/09 02:20:07;;;;;;;8.40;2.27;;;5.90;99.90;;;;;;5072378;28;20367;-85
2022/04/09 02:22:41;;;;;;;10.60;2.50;;;6.00;99.90;;;;;;5053775;28;20038;-85
2022/04/09 02:25:13;;;;;;;9.37;2.30;;;6.00;99.90;;;;;;5053957;28;20504;-85
2022/04/09 02:27:39;;;;;;;10.57;2.80;;;5.90;99.90;;;;;;5053909;28;20029;-85
2022/04/09 02:30:08;;;;;;;16.50;2.43;;;6.00;99.90;;;;;;5053937;28;20111;-88
2022/04/09 02:32:51;;;;;;;14.57;2.67;;;6.00;99.90;;;;;;5053834;28;20028;-86
2022/04/09 02:35:22;;;;;;;12.70;2.70;;;6.00;99.90;;;;;;5053732;28;20033;-86
2022/04/09 02:37:49;;;;;;;13.13;2.78;;;6.00;99.90;;;;;;5053412;28;20024;-85
2022/04/09 02:40:15;;;;;;;14.53;2.63;;;5.90;99.90;;;;;;5053825;28;20047;-86
2022/04/09 02:42:42;;;;;;;10.60;3.10;;;5.90;99.90;;;;;;5070407;28;20115;-85
2022/04/09 02:45:09;;;;;;;15.50;3.47;;;5.90;99.90;;;;;;5053062;28;20097;-86
2022/04/09 02:47:37;;;;;;;18.10;2.70;;;5.90;99.90;;;;;;5071399;28;20036;-86
2022/04/09 02:50:06;;;;;;;9.90;2.37;;;5.90;99.90;;;;;;5053854;28;20029;-85
2022/04/09 02:52:37;;;;;;;13.60;2.93;;;5.90;99.90;;;;;;5053285;28;20040;-86
2022/04/09 02:55:05;;;;;;;9.50;3.23;;;5.90;99.90;;;;;;5053525;28;20078;-85
2022/04/09 02:57:32;;;;;;;15.53;3.03;;;5.80;99.90;;;;;;5069727;28;20024;-85
2022/04/09 02:59:59;;;;;;;13.30;2.80;;;5.80;99.90;;;;;;5053511;28;20086;-86
2022/04/09 03:02:25;;;;;;;16.03;2.93;;;5.90;99.90;;;;;;5053153;28;20029;-86
2022/04/09 03:04:53;;;;;;;11.37;2.83;;;5.80;99.90;;;;;;5053397;28;20107;-86
2022/04/09 03:07:19;;;;;;;16.70;2.80;;;5.90;99.90;;;;;;5053194;28;20024;-85
2022/04/09 03:09:45;;;;;;;9.97;2.83;;;5.80;99.90;;;;;;5071182;28;20439;-86
2022/04/09 03:12:11;;;;;;;14.97;2.97;;;5.80;99.90;;;;;;5053234;28;20052;-85
2022/04/09 03:14:37;;;;;;;15.50;3.03;;;5.80;99.90;;;;;;5053151;28;20028;-86
2022/04/09 03:17:03;;;;;;;12.77;2.63;;;5.80;99.90;;;;;;5052841;28;20504;-85
2022/04/09 03:19:29;;;;;;;8.73;2.53;;;5.80;99.90;;;;;;5052977;28;20035;-85
2022/04/09 03:21:56;;;;;;;14.20;2.90;;;5.80;99.90;;;;;;5052901;28;20021;-86
2022/04/09 03:24:23;;;;;;;18.47;2.80;;;5.80;99.90;;;;;;5052973;28;20173;-85
2022/04/09 03:26:49;;;;;;;15.17;2.90;;;5.80;99.90;;;;;;5052547;28;20068;-85
2022/04/09 03:29:15;;;;;;;15.87;4.17;;;5.80;99.90;;;;;;5053007;28;20025;-85
2022/04/09 03:31:43;;;;;;;15.17;3.47;;;5.80;99.90;;;;;;5052991;28;20024;-85
2022/04/09 03:34:11;;;;;;;16.73;3.57;;;5.80;99.90;;;;;;5052858;28;20032;-85
2022/04/09 03:36:38;;;;;;;14.13;3.37;;;5.80;99.90;;;;;;5052611;28;20074;-85
2022/04/09 03:39:05;;;;;;;14.63;3.33;;;5.80;99.90;;;;;;5036435;28;20515;-86
2022/04/09 03:41:32;;;;;;;16.77;3.47;;;5.70;99.90;;;;;;5052646;28;20029;-85
2022/04/09 03:44:01;;;;;;;15.15;2.95;;;5.80;99.90;;;;;;5052873;28;20025;-85
2022/04/09 03:46:32;;;;;;;14.23;3.20;;;5.80;99.90;;;;;;5053521;28;20060;-88
2022/04/09 03:49:02;;;;;;;14.20;3.13;;;5.80;99.90;;;;;;5053847;28;20028;-85
2022/04/09 03:51:29;;;;;;;13.27;2.83;;;5.80;99.90;;;;;;5069403;28;20029;-85
2022/04/09 03:53:56;;;;;;;12.97;2.40;;;5.80;99.90;;;;;;5052787;28;20053;-84
2022/04/09 03:56:24;;;;;;;12.20;2.57;;;5.90;99.90;;;;;;5053364;28;20036;-86
2022/04/09 03:58:51;;;;;;;16.57;2.97;;;5.80;99.90;;;;;;5056687;28;20025;-86
2022/04/09 04:01:24;;;;;;;20.35;3.20;;;5.80;99.90;;;;;;5056707;28;20066;-86
2022/04/09 04:03:51;;;;;;;14.70;2.20;;;5.80;99.90;;;;;;5056953;28;20032;-86
2022/04/09 04:06:18;;;;;;;15.73;2.40;;;5.80;99.90;;;;;;5056552;28;20031;-86
2022/04/09 04:08:44;;;;;;;13.03;2.40;;;5.80;99.90;;;;;;5056319;28;20056;-86
2022/04/09 04:11:14;;;;;;;10.10;2.40;;;5.70;99.90;;;;;;5057272;28;20047;-85
2022/04/09 04:13:41;;;;;;;14.97;2.50;;;5.80;99.90;;;;;;5073020;28;20055;-86
2022/04/09 04:16:10;;;;;;;13.52;2.90;;;5.70;99.90;;;;;;5073226;28;20115;-86
2022/04/09 04:18:39;;;;;;;15.40;2.70;;;5.70;99.90;;;;;;5072735;28;20087;-85
2022/04/09 04:21:05;;;;;;;14.20;2.57;;;5.70;99.90;;;;;;5056523;28;20025;-85
2022/04/09 04:23:31;;;;;;;14.20;3.00;;;5.70;99.90;;;;;;5056387;28;20033;-85
2022/04/09 04:26:07;;;;;;;19.30;2.90;;;5.70;99.90;;;;;;5072862;28;20058;-86
2022/04/09 04:28:34;;;;;;;15.50;2.77;;;5.80;99.90;;;;;;5056061;28;20036;-85
2022/04/09 04:31:00;;;;;;;15.57;2.90;;;5.80;99.90;;;;;;5072910;28;20098;-85
2022/04/09 04:33:26;;;;;;;15.63;3.40;;;5.80;99.90;;;;;;5072792;28;20039;-86
2022/04/09 04:35:56;;;;;;;16.03;3.27;;;5.80;99.90;;;;;;5056041;28;20538;-86
2022/04/09 04:38:27;;;;;;;15.50;2.63;;;5.80;99.90;;;;;;5055728;28;20025;-85
2022/04/09 04:40:55;;;;;;;13.13;2.67;;;5.80;99.90;;;;;;5055965;28;20123;-85
2022/04/09 04:43:23;;;;;;;15.03;2.50;;;5.90;99.90;;;;;;5055899;28;20077;-86
2022/04/09 04:45:50;;;;;;;12.47;2.73;;;5.90;99.90;;;;;;5072551;28;20097;-85
2022/04/09 04:48:16;;;;;;;12.13;2.50;;;5.90;99.90;;;;;;5073606;28;20493;-86
2022/04/09 04:50:42;;;;;;;12.80;2.30;;;5.80;99.90;;;;;;5056116;28;20385;-86
2022/04/09 04:53:12;;;;;;;14.75;2.63;;;5.80;99.90;;;;;;5056072;28;20116;-86
2022/04/09 04:55:53;;;;;;;11.67;2.20;;;5.80;99.90;;;;;;5058070;28;20064;-86
2022/04/09 04:58:22;;;;;;;9.55;2.42;;;5.90;99.90;;;;;;5055496;28;20109;-86
2022/04/09 05:00:57;;;;;;;14.40;2.60;;;5.90;99.90;;;;;;5055699;28;20032;-86
2022/04/09 05:03:22;;;;;;;13.13;3.13;;;6.00;99.90;;;;;;5055732;28;20028;-86
2022/04/09 05:05:56;;;;;;;12.97;3.10;;;6.00;99.90;;;;;;5055545;28;20123;-86
2022/04/09 05:08:22;;;;;;;14.10;2.83;;;6.00;99.90;;;;;;5071608;28;20106;-86
2022/04/09 05:10:48;;;;;;;11.80;2.60;;;6.00;99.90;;;;;;5055520;28;20090;-86
2022/04/09 05:13:17;;;;;;;11.77;2.53;;;6.00;99.90;;;;;;5072082;28;20029;-86
2022/04/09 05:15:43;;;;;;;12.03;2.30;;;6.00;99.90;;;;;;5055285;28;20639;-86
2022/04/09 05:18:10;;;;;;;14.93;2.40;;;6.00;99.90;;;;;;5071632;28;20577;-86
2022/04/09 05:20:37;;;;;;;10.10;1.93;;;6.00;99.90;;;;;;5055919;28;20025;-86
2022/04/09 05:23:08;;;;;;;17.87;2.53;;;6.00;99.90;;;;;;5055331;28;20090;-86
2022/04/09 05:25:34;;;;;;;17.33;2.87;;;6.00;99.90;;;;;;5055174;28;20127;-86
2022/04/09 05:28:05;;;;;;;12.93;2.20;;;6.00;99.90;;;;;;5054933;28;20543;-86
2022/04/09 05:30:35;;;;;;;14.53;2.83;;;6.00;99.90;;;;;;5055121;28;20048;-86
2022/04/09 05:33:03;;;;;;;8.47;1.90;;;6.00;99.90;;;;;;5054887;28;20117;-86
2022/04/09 05:35:29;;;;;;;12.13;2.70;;;6.00;99.90;;;;;;5054925;28;20028;-86
2022/04/09 05:37:56;;;;;;;11.87;2.23;;;6.00;99.90;;;;;;5054516;28;20044;-86
2022/04/09 05:40:28;;;;;;;14.63;2.10;;;6.10;99.90;;;;;;5055050;28;20185;-86
2022/04/09 05:43:00;;;;;;;15.00;2.33;;;6.10;99.90;;;;;;5054750;28;20111;-87
2022/04/09 05:45:26;;;;;;;12.50;2.20;;;6.20;99.90;;;;;;5054878;28;20032;-86
2022/04/09 05:47:51;;;;;;;14.57;2.63;;;6.10;99.90;;;;;;5054612;28;20028;-86
2022/04/09 05:50:38;;;;;;;15.67;3.10;;;6.10;99.90;;;;;;5055109;28;20024;-86
2022/04/09 05:53:07;;;;;;;13.30;3.40;;;6.10;99.90;;;;;;5054538;28;20056;-86
2022/04/09 05:55:36;;;;;;;12.73;3.10;;;6.10;99.90;;;;;;5054530;28;20035;-86
2022/04/09 05:58:02;;;;;;;15.80;2.57;;;6.10;99.90;;;;;;5054302;28;20029;-86
2022/04/09 06:00:32;;;;;;;13.70;2.57;;;6.10;99.90;;;;;;5054785;28;20025;-86
2022/04/09 06:03:10;;;;;;;13.83;2.50;;;6.10;99.90;;;;;;5054508;28;20032;-86
2022/04/09 06:05:39;;;;;;;17.23;3.03;;;6.10;99.90;;;;;;5054465;28;20045;-86
2022/04/09 06:08:12;;;;;;;12.53;3.30;;;6.10;99.90;;;;;;5054001;28;20029;-86
2022/04/09 06:10:39;;;;;;;17.67;3.30;;;6.10;99.90;;;;;;5054612;28;20028;-86
2022/04/09 06:13:06;;;;;;;16.30;2.97;;;6.00;99.90;;;;;;5054334;28;20063;-85
2022/04/09 06:15:32;;;;;;;18.27;2.70;;;6.10;99.90;;;;;;5054126;28;20060;-86
2022/04/09 06:18:06;;;;;;;12.73;2.77;;;6.10;99.90;;;;;;5053963;28;20127;-85
2022/04/09 06:20:32;;;;;;;15.90;2.73;;;6.20;99.90;;;;;;5053815;28;20024;-86
2022/04/09 06:22:59;;;;;;;14.03;2.67;;;6.20;99.90;;;;;;5054127;28;20454;-85
2022/04/09 06:25:26;;;;;;;11.13;2.40;;;6.20;99.90;;;;;;5054116;28;20111;-85
2022/04/09 06:27:52;;;;;;;10.83;2.77;;;6.20;99.90;;;;;;5053952;28;20314;-85
2022/04/09 06:30:19;;;;;;;16.13;3.07;;;6.10;99.90;;;;;;5054130;28;20036;-85
2022/04/09 06:32:54;;;;;;;21.00;2.80;;;6.10;99.90;;;;;;5053700;28;20035;-85
2022/04/09 06:35:20;;;;;;;15.13;2.57;;;6.10;99.90;;;;;;5054085;28;20155;-85
2022/04/09 06:37:46;;;;;;;13.27;2.70;;;6.20;99.90;;;;;;5053499;28;20177;-85
2022/04/09 06:40:14;;;;;;;15.73;2.27;;;6.20;99.90;;;;;;5053993;28;20035;-85
2022/04/09 06:42:41;;;;;;;17.13;2.60;;;6.30;99.90;;;;;;5053729;28;20048;-85
2022/04/09 06:45:19;;;;;;;12.63;2.53;;;6.40;99.90;;;;;;5070716;28;20033;-86
2022/04/09 06:48:03;;;;;;;15.27;2.60;;;6.40;99.90;;;;;;5071696;28;20055;-85
2022/04/09 06:50:34;;;;;;;13.07;2.30;;;6.50;99.90;;;;;;5053720;28;20093;-85
2022/04/09 06:53:00;;;;;;;13.17;2.53;;;6.50;99.90;;;;;;5053349;28;20119;-85
2022/04/09 06:55:28;;;;;;;13.30;2.87;;;6.40;99.90;;;;;;5053566;28;20033;-85
2022/04/09 06:58:01;;;;;;;12.77;2.37;;;6.50;99.90;;;;;;5053233;28;20025;-86
2022/04/09 07:00:29;;;;;;;12.43;2.50;;;6.50;99.90;;;;;;5053563;28;20032;-86
2022/04/09 07:02:55;;;;;;;11.17;2.43;;;6.50;99.90;;;;;;5053186;28;20035;-86
2022/04/09 07:05:21;;;;;;;13.47;2.50;;;6.60;99.90;;;;;;5071580;28;20037;-86
2022/04/09 07:07:51;;;;;;;11.50;2.70;;;6.60;99.90;;;;;;5053899;28;20460;-86
2022/04/09 07:10:17;;;;;;;15.37;2.67;;;6.60;99.90;;;;;;5053906;28;20036;-86
2022/04/09 07:12:43;;;;;;;18.23;3.07;;;6.70;99.90;;;;;;5071107;28;20081;-85
2022/04/09 07:15:10;;;;;;;19.20;3.00;;;6.80;99.90;;;;;;5053474;28;20028;-85
2022/04/09 07:17:42;;;;;;;11.23;2.57;;;6.80;99.90;;;;;;5052725;28;20535;-86
2022/04/09 07:20:11;;;;;;;12.37;2.43;;;6.80;99.90;;;;;;5053336;28;20476;-86
2022/04/09 07:22:38;;;;;;;14.13;2.20;;;6.80;99.90;;;;;;5071001;28;20021;-86
2022/04/09 07:25:06;;;;;;;17.13;2.43;;;6.80;99.90;;;;;;5070904;28;20052;-86
2022/04/09 07:27:42;;;;;;;13.73;2.30;;;6.90;99.90;;;;;;5052761;28;20043;-86
2022/04/09 07:30:12;;;;;;;16.50;2.23;;;7.00;99.90;;;;;;5052930;28;20094;-85
2022/04/09 07:32:50;;;;;;;13.53;2.67;;;7.10;99.90;;;;;;5070847;28;20028;-86
2022/04/09 07:35:16;;;;;;;14.97;3.97;;;6.90;99.90;;;;;;5052965;28;20036;-85
2022/04/09 07:37:58;;;;;;;13.27;4.20;;;6.90;99.90;;;;;;5052589;28;20086;-85
2022/04/09 07:40:30;;;;;;;11.80;3.90;;;6.70;99.90;;;;;;5053002;28;20552;-85
2022/04/09 07:42:58;;;;;;;12.53;3.03;;;6.60;99.90;;;;;;5070701;28;20032;-85
2022/04/09 07:45:25;;;;;;;19.07;3.13;;;6.60;99.90;;;;;;5070783;28;20028;-85
2022/04/09 07:47:59;;;;;;;15.40;2.90;;;6.70;99.90;;;;;;5070508;28;20126;-85
2022/04/09 07:50:25;;;;;;;14.70;2.47;;;6.80;99.90;;;;;;5070605;28;20036;-85
2022/04/09 07:52:52;;;;;;;16.37;2.80;;;6.80;99.90;;;;;;5052707;28;20032;-85
2022/04/09 07:55:18;;;;;;;14.97;2.70;;;6.90;99.90;;;;;;5070472;28;20032;-85
2022/04/09 07:57:47;;;;;;;23.30;4.77;;;6.90;99.90;;;;;;5035692;28;20028;-85
2022/04/09 08:00:17;;;;;;;18.15;4.47;;;6.80;99.90;;;;;;5052713;28;20312;-85
2022/04/09 08:02:43;;;;;;;15.87;3.53;;;6.80;99.90;;;;;;5070380;28;20025;-85
2022/04/09 08:05:10;;;;;;;15.03;3.70;;;6.90;99.90;;;;;;5052550;28;20028;-85
2022/04/09 08:07:39;;;;;;;16.80;3.77;;;7.00;99.90;;;;;;5052527;28;20037;-85
2022/04/09 08:10:07;;;;;;;14.10;3.05;;;7.00;99.90;;;;;;5070452;28;20116;-85
2022/04/09 08:12:33;;;;;;;16.07;4.17;;;7.20;99.90;;;;;;5070338;28;20032;-85
2022/04/09 08:14:59;;;;;;;13.60;2.80;;;7.20;99.90;;;;;;5070351;28;20078;-85
2022/04/09 08:20:21;;;;;;;16.87;4.20;;;7.30;99.90;;;;;;5048561;28;20502;-80
2022/04/09 08:22:48;;;;;;;16.13;3.40;;;7.40;99.90;;;;;;5050268;28;20029;-80
2022/04/09 08:25:14;;;;;;;10.83;2.80;;;7.40;99.90;;;;;;5032445;28;20455;-80
2022/04/09 08:27:42;;;;;;;13.20;3.03;;;7.50;99.90;;;;;;5050028;28;20036;-80
2022/04/09 08:30:09;;;;;;;13.43;2.97;;;7.40;99.90;;;;;;5050205;28;20041;-80
2022/04/09 08:32:34;;;;;;;12.40;2.80;;;7.50;99.90;;;;;;5032186;28;20470;-80
2022/04/09 08:35:01;;;;;;;5.37;1.27;;;7.60;99.90;;;;;;5050325;28;20048;-80
2022/04/09 08:37:26;;;;;;;5.90;1.30;;;7.70;99.90;;;;;;5050151;28;20208;-80
2022/04/09 08:39:54;;;;;;;3.80;0.83;;;7.60;99.90;;;;;;5050295;28;20044;-80
2022/04/09 08:42:21;;;;;;;7.30;0.90;;;7.60;99.90;;;;;;5032991;28;20396;-80
2022/04/09 08:44:48;;;;;;;4.23;0.90;;;7.60;99.90;;;;;;5053914;28;20484;-80
2022/04/09 08:47:15;;;;;;;4.40;1.20;;;7.60;99.90;;;;;;5053693;28;20078;-80
2022/04/09 08:49:46;;;;;;;6.57;1.20;;;7.70;99.90;;;;;;5035839;28;20044;-80
2022/04/09 08:52:12;;;;;;;6.37;1.20;;;7.70;99.90;;;;;;5053688;28;20122;-80
2022/04/09 08:54:40;;;;;;;2.97;0.70;;;7.70;99.90;;;;;;5053654;28;20032;-80
2022/04/09 08:57:07;;;;;;;1.87;0.60;;;7.70;99.90;;;;;;5035585;28;20095;-80
2022/04/09 08:59:33;;;;;;;1.83;0.80;;;7.80;99.90;;;;;;5053411;28;20036;-80
2022/04/09 09:01:59;;;;;;;4.43;0.90;;;7.80;99.90;;;;;;5053504;28;20025;-80
2022/04/09 09:04:24;;;;;;;7.47;2.03;;;7.80;99.90;;;;;;5053628;28;20036;-80
2022/04/09 09:06:50;;;;;;;6.83;1.90;;;7.80;99.90;;;;;;5035451;28;20132;-80
2022/04/09 09:09:32;;;;;;;7.37;1.60;;;7.90;99.90;;;;;;5053404;28;20075;-80
2022/04/09 09:12:02;;;;;;;4.93;1.80;;;8.00;99.90;;;;;;5053314;28;20109;-80
2022/04/09 09:14:30;;;;;;;7.83;1.83;;;8.00;99.90;;;;;;5035483;28;20033;-78
2022/04/09 09:16:58;;;;;;;6.93;1.70;;;8.00;99.90;;;;;;5035284;28;20028;-80
2022/04/09 09:19:48;;;;;;;5.30;1.43;;;8.10;99.90;;;;;;5053307;28;20036;-80
2022/04/09 09:22:18;;;;;;;3.70;1.10;;;8.00;99.90;;;;;;5052978;28;20117;-80
2022/04/09 09:25:08;;;;;;;3.90;1.20;;;8.00;99.90;;;;;;5053290;28;20177;-79
2022/04/09 09:27:34;;;;;;;;;;;7.90;99.90;;;;;;5053324;28;20036;-80
2022/04/09 09:29:59;;;;;;;8.80;2.53;;;7.90;99.90;;;;;;5053062;28;19913;-80
2022/04/09 09:32:28;;;;;;;4.93;1.20;;;7.80;99.90;;;;;;5052878;28;20070;-80
2022/04/09 09:34:59;;;;;;;4.80;0.90;;;7.80;99.90;;;;;;5052754;28;20025;-79
2022/04/09 09:37:28;;;;;;;5.63;1.23;;;7.80;99.90;;;;;;5052951;28;20025;-79
2022/04/09 09:39:54;;;;;;;6.45;1.85;;;7.80;99.90;;;;;;5052969;28;20041;-80
2022/04/09 09:42:21;;;;;;;5.60;1.67;;;7.80;99.90;;;;;;5052646;28;20112;-79
2022/04/09 09:44:48;;;;;;;5.73;1.80;;;7.90;99.90;;;;;;5053028;28;20296;-80
2022/04/09 09:47:17;;;;;;;5.13;1.50;;;7.90;99.90;;;;;;5034866;28;20025;-79
2022/04/09 09:49:55;;;;;;;6.25;1.27;;;7.90;99.90;;;;;;5052643;28;20032;-79
2022/04/09 09:52:34;;;;;;;4.70;1.77;;;7.90;99.90;;;;;;5052651;28;20029;-80
2022/04/09 09:55:19;;;;;;;2.65;1.17;;;7.80;99.90;;;;;;5033525;28;20033;-81
2022/04/09 09:57:48;;;;;;;6.90;2.00;;;7.80;99.90;;;;;;5034652;28;20036;-81
2022/04/09 10:00:14;;;;;;;7.35;1.83;;;7.60;99.90;;;;;;5052637;28;20232;-79
2022/04/09 10:02:43;;;;;;;8.17;2.57;;;7.60;99.90;;;;;;5052285;28;20055;-79
2022/04/09 10:05:09;;;;;;;11.27;3.67;;;7.50;99.90;;;;;;5034504;28;20025;-79
2022/04/09 10:07:35;;;;;;;11.47;4.13;;;7.60;99.90;;;;;;5052118;28;20419;-78
2022/04/09 10:10:02;;;;;;;8.87;2.70;;;7.60;99.90;;;;;;5052425;28;20037;-79
2022/04/09 10:12:28;;;;;;;8.70;2.50;;;7.70;99.90;;;;;;5052111;28;20112;-80
2022/04/09 10:14:54;;;;;;;9.60;2.13;;;7.80;99.90;;;;;;5034479;28;20417;-80
2022/04/09 10:17:22;;;;;;;11.77;3.43;;;7.90;99.90;;;;;;5052011;28;20116;-80
2022/04/09 10:19:56;;;;;;;14.10;3.40;;;7.90;99.90;;;;;;5052026;28;20668;-80
2022/04/09 10:22:34;;;;;;;16.30;4.00;;;8.10;99.90;;;;;;5034393;28;20021;-80
2022/04/09 10:25:01;;;;;;;10.07;3.37;;;8.20;99.90;;;;;;5034017;28;20032;-80
2022/04/09 10:27:47;;;;;;;17.87;4.20;;;8.20;99.90;;;;;;5033840;28;20061;-81
2022/04/09 10:30:16;;;;;;;9.00;2.00;;;8.20;99.90;;;;;;5034210;28;20052;-80
2022/04/09 10:32:43;;;;;;;15.27;2.60;;;8.10;99.90;;;;;;5033976;28;20033;-80
2022/04/09 10:35:31;;;;;;;9.20;1.67;;;8.10;99.90;;;;;;5051754;28;20033;-80
2022/04/09 10:38:15;;;;;;;10.30;2.10;;;8.20;99.90;;;;;;5051475;28;20028;-80
2022/04/09 10:40:44;;;;;;;4.90;1.37;;;8.20;99.90;;;;;;5051674;28;20080;-80
2022/04/09 10:43:23;;;;;;;6.28;1.00;;;8.20;99.90;;;;;;5033720;28;20040;-80
2022/04/09 10:46:05;;;;;;;2.40;0.73;;;8.20;99.90;;;;;;5051513;28;20033;-80
2022/04/09 10:48:34;;;;;;;4.70;1.40;;;8.20;99.70;;;;;;5051296;28;20104;-80
2022/04/09 10:51:04;;;;;;;5.85;1.27;;;8.20;99.80;;;;;;5033802;28;20032;-80
2022/04/09 10:53:32;;;;;;;7.07;2.43;;;8.40;99.30;;;;;;5051342;28;20063;-80
2022/04/09 10:56:29;;;;;;;6.13;1.43;;;8.40;99.20;;;;;;5051352;28;20040;-80
2022/04/09 10:59:26;;;;;;;7.97;1.87;;;8.50;98.50;;;;;;5033409;28;20097;-80
2022/04/09 11:01:52;;;;;;;4.87;1.53;;;8.50;98.40;;;;;;5043468;28;20564;-80
2022/04/09 11:04:31;;;;;;;6.40;1.57;;;8.80;98.40;;;;;;5051333;28;20124;-79
2022/04/09 11:07:19;;;;;;;5.90;1.47;;;8.90;97.30;;;;;;5050935;28;20033;-79
2022/04/09 11:10:04;;;;;;;5.97;1.40;;;9.10;97.70;;;;;;5051446;28;20350;-80
2022/04/09 11:12:39;;;;;;;6.93;1.33;;;9.20;98.30;;;;;;5050966;28;20032;-80
2022/04/09 11:15:07;;;;;;;5.37;1.30;;;9.30;96.40;;;;;;5050882;28;20111;-80
2022/04/09 11:17:34;;;;;;;6.63;1.67;;;9.20;95.50;;;;;;5050597;28;20053;-80
2022/04/09 11:20:15;;;;;;;4.90;1.00;;;9.10;95.30;;;;;;5033203;28;20374;-80
2022/04/09 11:22:51;;;;;;;5.40;1.10;;;9.00;95.70;;;;;;5051021;28;20407;-80
2022/04/09 11:25:17;;;;;;;8.63;1.23;;;9.00;95.60;;;;;;5050857;28;20029;-80
2022/04/09 11:27:43;;;;;;;5.20;1.37;;;9.00;95.50;;;;;;5050549;28;20451;-80
2022/04/09 11:30:09;;;;;;;4.30;1.20;;;9.10;94.50;;;;;;5050941;28;20138;-80
2022/04/09 11:32:38;;;;;;;5.47;1.30;;;9.20;96.10;;;;;;5032924;28;20033;-80
2022/04/09 11:35:10;;;;;;;6.22;1.20;;;9.20;96.10;;;;;;5051018;28;20075;-80
2022/04/09 11:37:42;;;;;;;4.13;0.80;;;9.20;94.30;;;;;;5032708;28;20029;-80
2022/04/09 11:40:11;;;;;;;4.20;0.90;;;9.30;91.30;;;;;;5050741;28;20378;-79
2022/04/09 11:42:51;;;;;;;3.67;0.90;;;9.30;89.30;;;;;;5050531;28;20434;-80
2022/04/09 11:45:17;;;;;;;2.97;0.73;;;9.20;86.70;;;;;;5050616;28;20063;-80
2022/04/09 11:47:43;;;;;;;6.63;1.50;;;9.30;88.40;;;;;;5032546;28;20078;-79
2022/04/09 11:50:12;;;;;;;3.20;1.00;;;9.40;85.60;;;;;;5050771;28;20033;-80
2022/04/09 11:52:38;;;;;;;4.40;0.93;;;9.40;88.30;;;;;;5032550;28;20033;-80
2022/04/09 11:55:08;;;;;;;5.67;1.27;;;9.60;86.80;;;;;;5050455;28;20117;-80
2022/04/09 11:57:34;;;;;;;5.57;0.97;;;9.70;87.80;;;;;;5032538;28;20029;-79
2022/04/09 12:00:00;;;;;;;11.43;2.83;;;9.80;90.30;;;;;;5032635;28;20385;-80
2022/04/09 12:02:27;;;;;;;7.23;1.50;;;9.90;93.90;;;;;;5032534;28;20027;-80
2022/04/09 12:04:55;;;;;;;4.93;1.43;;;9.80;94.70;;;;;;5032559;28;20032;-80
2022/04/09 12:07:22;;;;;;;5.17;1.40;;;9.70;95.00;;;;;;5050150;28;20025;-80
2022/04/09 12:09:48;;;;;;;6.33;1.23;;;9.70;95.00;;;;;;5032532;28;20029;-81
2022/04/09 12:12:17;;;;;;;2.67;1.00;;;9.60;94.30;;;;;;5050336;28;20025;-81
2022/04/09 12:14:52;;;;;;;5.50;1.40;;;9.50;94.70;;;;;;5050536;28;20192;-81
2022/04/09 12:17:18;;;;;;;4.60;1.30;;;9.50;94.90;;;;;;5033156;28;20044;-80
2022/04/09 12:19:44;;;;;;;4.73;1.43;;;9.50;95.40;;;;;;5054468;28;20033;-80
2022/04/09 12:22:19;;;;;;;4.20;1.10;;;9.60;92.20;;;;;;5036428;28;20496;-81
2022/04/09 12:24:56;;;;;;;4.53;0.80;;;9.60;90.70;;;;;;5054197;28;20043;-81
2022/04/09 12:27:42;;;;;;;2.73;1.00;;;9.70;89.00;;;;;;5036158;28;20415;-81
2022/04/09 12:30:08;;;;;;;3.30;1.13;;;9.80;87.70;;;;;;5054232;28;20155;-81
2022/04/09 12:32:34;;;;;;;3.27;0.93;;;10.00;86.90;;;;;;5054206;28;20029;-81
2022/04/09 12:35:05;;;;;;;8.17;1.43;;;10.00;86.80;;;;;;5054008;28;20096;-81
2022/04/09 12:37:48;;;;;;;5.97;1.43;;;10.10;86.20;;;;;;5053850;28;20112;-81
2022/04/09 12:40:21;;;;;;;8.53;1.77;;;10.00;86.30;;;;;;5036240;28;20035;-81
2022/04/09 12:42:47;;;;;;;8.43;2.07;;;9.90;92.30;;;;;;5053773;28;20044;-80
2022/04/09 12:45:17;;;;;;;4.70;1.53;;;9.70;92.70;;;;;;5054044;28;20021;-80
2022/04/09 12:47:59;;;;;;;5.80;1.30;;;9.50;92.40;;;;;;5035859;28;20552;-80
2022/04/09 12:50:27;;;;;;;5.63;1.70;;;9.30;93.80;;;;;;5035963;28;20047;-81
2022/04/09 12:52:58;;;;;;;5.90;1.80;;;9.30;93.80;;;;;;5053567;28;20029;-81
2022/04/09 12:55:25;;;;;;;6.17;1.37;;;9.40;93.50;;;;;;5035676;28;20037;-81
2022/04/09 12:57:54;;;;;;;5.07;1.10;;;9.40;93.00;;;;;;5053464;28;20052;-81
2022/04/09 13:00:24;;;;;;;4.68;1.25;;;9.60;91.80;;;;;;5035751;28;20393;-81
2022/04/09 13:02:51;;;;;;;6.97;1.50;;;9.60;91.90;;;;;;5053748;28;20036;-81